createdAt,value
2017-10-22T00:00:09.075Z,86.3
2017-10-22T00:01:10.687Z,86.6
2017-10-22T00:02:12.297Z,86.3
2017-10-22T00:03:13.909Z,86.2
2017-10-22T00:04:15.524Z,86.2
2017-10-22T00:05:17.136Z,86.2
2017-10-22T00:06:18.747Z,85.8
2017-10-22T00:07:20.356Z,85.6
2017-10-22T00:08:21.972Z,85.4
2017-10-22T00:09:23.577Z,85.6
2017-10-22T00:10:25.186Z,85.4
2017-10-22T00:11:26.800Z,85.4
2017-10-22T00:12:28.410Z,85.5
2017-10-22T00:13:30.018Z,85.4
2017-10-22T00:14:31.629Z,85.2
2017-10-22T00:15:33.237Z,85.2
2017-10-22T00:16:34.849Z,85.2
2017-10-22T00:17:36.459Z,85.1
2017-10-22T00:18:38.073Z,85.2
2017-10-22T00:19:39.679Z,85.8
2017-10-22T00:20:41.289Z,85.2
2017-10-22T00:21:42.900Z,85.2
2017-10-22T00:22:44.518Z,85.3
2017-10-22T00:23:46.125Z,84.6
2017-10-22T00:24:47.738Z,84.4
2017-10-22T00:25:49.362Z,84.7
2017-10-22T00:26:50.957Z,84.9
2017-10-22T00:27:52.567Z,84.8
2017-10-22T00:28:54.178Z,84.9
2017-10-22T00:29:55.787Z,84.8
2017-10-22T00:30:57.406Z,84.7
2017-10-22T00:31:59.021Z,84.5
2017-10-22T00:33:00.647Z,84.2
2017-10-22T00:34:02.258Z,84.0
2017-10-22T00:35:03.866Z,83.8
2017-10-22T00:36:05.479Z,83.8
2017-10-22T00:37:07.085Z,83.7
2017-10-22T00:38:08.694Z,83.6
2017-10-22T00:39:10.307Z,83.9
2017-10-22T00:40:11.917Z,83.3
2017-10-22T00:41:13.526Z,83.8
2017-10-22T00:42:15.138Z,83.4
2017-10-22T00:43:16.745Z,83.7
2017-10-22T00:44:18.355Z,83.9
2017-10-22T00:45:19.967Z,83.0
2017-10-22T00:46:21.578Z,82.9
2017-10-22T00:47:23.189Z,82.9
2017-10-22T00:48:24.800Z,83.2
2017-10-22T00:49:26.412Z,83.6
2017-10-22T00:50:28.021Z,83.8
2017-10-22T00:51:29.635Z,83.2
2017-10-22T00:52:31.246Z,83.0
2017-10-22T00:53:32.855Z,82.9
2017-10-22T00:54:34.467Z,83.1
2017-10-22T00:55:36.078Z,82.9
2017-10-22T00:56:37.687Z,83.1
2017-10-22T00:57:39.304Z,83.0
2017-10-22T00:58:40.912Z,82.8
2017-10-22T00:59:42.522Z,83.8
2017-10-22T01:00:44.133Z,83.6
2017-10-22T01:01:45.748Z,83.1
2017-10-22T01:02:47.362Z,83.7
2017-10-22T01:03:48.976Z,83.1
2017-10-22T01:04:50.589Z,83.1
2017-10-22T01:05:52.196Z,83.1
2017-10-22T01:06:53.807Z,83.5
2017-10-22T01:07:55.418Z,83.1
2017-10-22T01:08:57.027Z,83.8
2017-10-22T01:09:58.639Z,83.6
2017-10-22T01:11:00.248Z,83.8
2017-10-22T01:12:01.856Z,83.1
2017-10-22T01:13:03.467Z,83.1
2017-10-22T01:14:05.080Z,83.2
2017-10-22T01:15:06.689Z,83.1
2017-10-22T01:16:08.301Z,83.0
2017-10-22T01:17:09.913Z,83.7
2017-10-22T01:18:11.527Z,83.6
2017-10-22T01:19:13.136Z,83.3
2017-10-22T01:20:14.745Z,84.0
2017-10-22T01:21:16.356Z,83.2
2017-10-22T01:22:17.971Z,83.6
2017-10-22T01:23:19.579Z,83.5
2017-10-22T01:24:21.188Z,83.7
2017-10-22T01:25:22.795Z,83.7
2017-10-22T01:26:24.404Z,83.7
2017-10-22T01:27:26.020Z,83.3
2017-10-22T01:28:27.626Z,83.8
2017-10-22T01:29:29.241Z,83.5
2017-10-22T01:30:30.846Z,83.8
2017-10-22T01:31:32.458Z,83.8
2017-10-22T01:32:34.064Z,84.1
2017-10-22T01:33:35.682Z,84.3
2017-10-22T01:34:37.286Z,84.4
2017-10-22T01:35:38.899Z,84.3
2017-10-22T01:36:40.511Z,84.2
2017-10-22T01:37:42.124Z,84.9
2017-10-22T01:38:43.740Z,84.6
2017-10-22T01:39:45.345Z,84.9
2017-10-22T01:40:46.964Z,85.2
2017-10-22T01:41:48.567Z,85.2
2017-10-22T01:42:50.176Z,85.0
2017-10-22T01:43:51.790Z,85.5
2017-10-22T01:44:53.400Z,85.3
2017-10-22T01:45:55.008Z,85.5
2017-10-22T01:46:56.617Z,85.6
2017-10-22T01:47:58.227Z,86.0
2017-10-22T01:48:59.839Z,85.3
2017-10-22T01:50:01.449Z,85.6
2017-10-22T01:51:03.064Z,85.1
2017-10-22T01:52:04.672Z,84.9
2017-10-22T01:53:06.280Z,85.6
2017-10-22T01:54:07.891Z,85.8
2017-10-22T01:55:09.505Z,84.9
2017-10-22T01:56:11.128Z,85.5
2017-10-22T01:57:12.740Z,85.1
2017-10-22T01:58:14.349Z,85.2
2017-10-22T01:59:15.960Z,85.2
2017-10-22T02:00:17.569Z,85.1
2017-10-22T02:01:19.187Z,85.2
2017-10-22T02:02:20.790Z,84.7
2017-10-22T02:03:22.393Z,84.9
2017-10-22T02:04:24.014Z,84.4
2017-10-22T02:05:25.626Z,84.8
2017-10-22T02:06:27.236Z,84.4
2017-10-22T02:07:28.847Z,84.0
2017-10-22T02:08:30.456Z,83.6
2017-10-22T02:09:32.068Z,83.7
2017-10-22T02:10:33.680Z,83.6
2017-10-22T02:11:35.287Z,83.4
2017-10-22T02:12:36.900Z,83.3
2017-10-22T02:13:38.512Z,83.2
2017-10-22T02:14:40.116Z,83.0
2017-10-22T02:15:41.727Z,83.0
2017-10-22T02:16:43.337Z,82.8
2017-10-22T02:17:44.950Z,82.4
2017-10-22T02:18:46.566Z,82.6
2017-10-22T02:19:48.179Z,82.1
2017-10-22T02:20:49.790Z,82.1
2017-10-22T02:21:51.399Z,82.9
2017-10-22T02:22:53.009Z,82.3
2017-10-22T02:23:54.617Z,82.3
2017-10-22T02:24:56.228Z,82.0
2017-10-22T02:25:57.839Z,82.1
2017-10-22T02:26:59.453Z,82.3
2017-10-22T02:28:01.062Z,81.8
2017-10-22T02:29:02.668Z,81.8
2017-10-22T02:30:04.280Z,82.0
2017-10-22T02:31:05.891Z,82.1
2017-10-22T02:32:07.500Z,82.1
2017-10-22T02:33:09.114Z,82.1
2017-10-22T02:34:10.729Z,81.8
2017-10-22T02:35:12.341Z,82.2
2017-10-22T02:36:13.956Z,81.8
2017-10-22T02:37:15.565Z,82.5
2017-10-22T02:38:17.172Z,82.1
2017-10-22T02:39:18.784Z,82.1
2017-10-22T02:40:20.402Z,82.1
2017-10-22T02:41:22.006Z,81.5
2017-10-22T02:42:23.616Z,81.6
2017-10-22T02:43:25.223Z,82.0
2017-10-22T02:44:26.833Z,81.6
2017-10-22T02:45:28.444Z,81.7
2017-10-22T02:46:30.056Z,81.4
2017-10-22T02:47:31.665Z,81.6
2017-10-22T02:48:33.283Z,81.7
2017-10-22T02:49:34.890Z,81.3
2017-10-22T02:50:36.495Z,81.3
2017-10-22T02:51:38.112Z,81.4
2017-10-22T02:52:39.724Z,81.6
2017-10-22T02:53:41.335Z,81.4
2017-10-22T02:54:42.944Z,81.3
2017-10-22T02:55:44.554Z,80.8
2017-10-22T02:56:46.165Z,81.0
2017-10-22T02:57:47.776Z,80.8
2017-10-22T02:58:49.382Z,80.9
2017-10-22T02:59:50.992Z,81.3
2017-10-22T03:00:52.601Z,81.1
2017-10-22T03:01:54.212Z,81.0
2017-10-22T03:02:55.819Z,80.7
2017-10-22T03:03:57.432Z,80.8
2017-10-22T03:04:59.044Z,80.8
2017-10-22T03:06:00.654Z,80.9
2017-10-22T03:07:02.264Z,80.6
2017-10-22T03:08:03.875Z,80.9
2017-10-22T03:09:05.488Z,80.8
2017-10-22T03:10:07.090Z,80.2
2017-10-22T03:11:08.712Z,80.6
2017-10-22T03:12:10.318Z,80.6
2017-10-22T03:13:11.928Z,80.1
2017-10-22T03:14:13.538Z,80.1
2017-10-22T03:15:15.148Z,79.8
2017-10-22T03:16:16.755Z,80.0
2017-10-22T03:17:18.374Z,79.6
2017-10-22T03:18:19.979Z,79.6
2017-10-22T03:19:21.591Z,79.6
2017-10-22T03:20:23.198Z,79.6
2017-10-22T03:21:24.810Z,79.8
2017-10-22T03:22:26.420Z,79.4
2017-10-22T03:23:28.031Z,79.2
2017-10-22T03:24:29.644Z,79.0
2017-10-22T03:25:31.258Z,79.3
2017-10-22T03:26:32.866Z,79.0
2017-10-22T03:27:34.477Z,79.6
2017-10-22T03:28:36.086Z,79.7
2017-10-22T03:29:37.696Z,79.5
2017-10-22T03:30:39.308Z,79.1
2017-10-22T03:31:40.920Z,79.0
2017-10-22T03:32:42.529Z,78.8
2017-10-22T03:33:44.138Z,79.5
2017-10-22T03:34:45.748Z,79.6
2017-10-22T03:35:47.357Z,79.3
2017-10-22T03:36:48.966Z,79.3
2017-10-22T03:37:50.574Z,79.4
2017-10-22T03:38:52.187Z,79.6
2017-10-22T03:39:53.801Z,79.5
2017-10-22T03:40:55.407Z,79.0
2017-10-22T03:41:57.021Z,79.1
2017-10-22T03:42:58.631Z,79.9
2017-10-22T03:44:00.245Z,80.3
2017-10-22T03:45:01.863Z,81.9
2017-10-22T03:46:03.468Z,82.1
2017-10-22T03:47:05.076Z,83.3
2017-10-22T03:48:06.686Z,83.7
2017-10-22T03:49:08.296Z,84.1
2017-10-22T03:50:09.902Z,85.5
2017-10-22T03:51:11.512Z,85.7
2017-10-22T03:52:13.122Z,87.5
2017-10-22T03:53:14.731Z,88.2
2017-10-22T03:54:16.341Z,90.3
2017-10-22T03:55:17.950Z,90.6
2017-10-22T03:56:19.569Z,90.7
2017-10-22T03:57:21.168Z,92.4
2017-10-22T03:58:22.779Z,93.6
2017-10-22T03:59:24.412Z,93.0
2017-10-22T04:00:26.003Z,94.1
2017-10-22T04:01:27.632Z,94.9
2017-10-22T04:02:29.238Z,94.7
2017-10-22T04:03:30.854Z,95.8
2017-10-22T04:04:32.462Z,94.7
2017-10-22T04:05:34.074Z,94.6
2017-10-22T04:06:35.695Z,96.2
2017-10-22T04:07:37.319Z,96.4
2017-10-22T04:08:38.921Z,96.0
2017-10-22T04:09:40.539Z,97.9
2017-10-22T04:10:42.148Z,98.7
2017-10-22T04:11:43.760Z,99.7
2017-10-22T04:12:45.370Z,100.0
2017-10-22T04:13:46.983Z,100.0
2017-10-22T04:14:48.589Z,100.0
2017-10-22T04:15:50.223Z,100.0
2017-10-22T04:16:51.823Z,100.0
2017-10-22T04:17:53.440Z,100.0
2017-10-22T04:18:55.045Z,100.0
2017-10-22T04:19:56.659Z,100.0
2017-10-22T04:20:58.272Z,100.0
2017-10-22T04:21:59.886Z,100.0
2017-10-22T04:23:01.500Z,100.0
2017-10-22T04:24:03.112Z,100.0
2017-10-22T04:25:04.720Z,100.0
2017-10-22T04:26:06.331Z,100.0
2017-10-22T04:27:07.949Z,100.0
2017-10-22T04:28:09.556Z,100.0
2017-10-22T04:29:11.168Z,100.0
2017-10-22T04:30:12.780Z,100.0
2017-10-22T04:31:14.388Z,100.0
2017-10-22T04:32:16.002Z,100.0
2017-10-22T04:33:17.613Z,100.0
2017-10-22T04:34:19.227Z,100.0
2017-10-22T04:35:20.839Z,100.0
2017-10-22T04:36:22.450Z,100.0
2017-10-22T04:37:24.061Z,100.0
2017-10-22T04:38:25.675Z,100.0
2017-10-22T04:39:27.287Z,100.0
2017-10-22T04:40:28.900Z,100.0
2017-10-22T04:41:30.512Z,100.0
2017-10-22T04:42:32.125Z,100.0
2017-10-22T04:43:33.741Z,100.0
2017-10-22T04:44:35.348Z,100.0
2017-10-22T04:45:36.957Z,100.0
2017-10-22T04:46:38.567Z,100.0
2017-10-22T04:47:40.176Z,100.0
2017-10-22T04:48:41.789Z,100.0
2017-10-22T04:49:43.399Z,100.0
2017-10-22T04:50:45.015Z,100.0
2017-10-22T04:51:46.629Z,100.0
2017-10-22T04:52:48.242Z,100.0
2017-10-22T04:53:49.851Z,100.0
2017-10-22T04:54:51.464Z,100.0
2017-10-22T04:55:53.075Z,100.0
2017-10-22T04:56:54.690Z,100.0
2017-10-22T04:57:56.300Z,100.0
2017-10-22T04:58:57.915Z,100.0
2017-10-22T04:59:59.529Z,100.0
2017-10-22T05:01:01.136Z,100.0
2017-10-22T05:02:02.745Z,100.0
2017-10-22T05:03:04.357Z,100.0
2017-10-22T05:04:05.965Z,100.0
2017-10-22T05:05:07.575Z,100.0
2017-10-22T05:06:09.190Z,100.0
2017-10-22T05:07:10.796Z,100.0
2017-10-22T05:08:12.405Z,100.0
2017-10-22T05:09:14.024Z,100.0
2017-10-22T05:10:15.628Z,100.0
2017-10-22T05:11:17.239Z,100.0
2017-10-22T05:12:18.855Z,100.0
2017-10-22T05:13:20.463Z,100.0
2017-10-22T05:14:22.073Z,100.0
2017-10-22T05:15:23.682Z,100.0
2017-10-22T05:16:25.294Z,100.0
2017-10-22T05:17:26.903Z,100.0
2017-10-22T05:18:28.512Z,100.0
2017-10-22T05:19:30.123Z,100.0
2017-10-22T05:20:31.736Z,100.0
2017-10-22T05:21:33.344Z,100.0
2017-10-22T05:22:34.959Z,100.0
2017-10-22T05:23:36.570Z,100.0
2017-10-22T05:24:38.181Z,100.0
2017-10-22T05:25:39.790Z,100.0
2017-10-22T05:26:41.404Z,100.0
2017-10-22T05:27:43.013Z,100.0
2017-10-22T05:28:44.624Z,100.0
2017-10-22T05:29:46.233Z,100.0
2017-10-22T05:30:47.845Z,100.0
2017-10-22T05:31:49.452Z,100.0
2017-10-22T05:32:51.066Z,100.0
2017-10-22T05:33:52.680Z,100.0
2017-10-22T05:34:54.291Z,100.0
2017-10-22T05:35:55.902Z,100.0
2017-10-22T05:36:57.509Z,100.0
2017-10-22T05:37:59.126Z,100.0
2017-10-22T05:39:00.745Z,100.0
2017-10-22T05:40:02.347Z,100.0
2017-10-22T05:41:03.960Z,100.0
2017-10-22T05:42:05.567Z,100.0
2017-10-22T05:43:07.185Z,100.0
2017-10-22T05:44:08.795Z,100.0
2017-10-22T05:45:10.406Z,100.0
2017-10-22T05:46:12.016Z,100.0
2017-10-22T05:47:13.626Z,100.0
2017-10-22T05:48:15.238Z,100.0
2017-10-22T05:49:16.850Z,100.0
2017-10-22T05:50:18.460Z,100.0
2017-10-22T05:51:20.068Z,100.0
2017-10-22T05:52:21.674Z,100.0
2017-10-22T05:53:23.288Z,100.0
2017-10-22T05:54:24.898Z,100.0
2017-10-22T05:55:26.514Z,100.0
2017-10-22T05:56:28.128Z,100.0
2017-10-22T05:57:29.736Z,100.0
2017-10-22T05:58:31.344Z,100.0
2017-10-22T05:59:32.953Z,100.0
2017-10-22T06:00:34.564Z,100.0
2017-10-22T06:01:36.173Z,100.0
2017-10-22T06:02:37.787Z,100.0
2017-10-22T06:03:39.404Z,100.0
2017-10-22T06:04:41.008Z,100.0
2017-10-22T06:05:42.622Z,100.0
2017-10-22T06:06:44.229Z,100.0
2017-10-22T06:07:45.845Z,100.0
2017-10-22T06:08:47.476Z,100.0
2017-10-22T06:09:49.089Z,100.0
2017-10-22T06:10:50.704Z,100.0
2017-10-22T06:11:52.316Z,100.0
2017-10-22T06:12:53.933Z,100.0
2017-10-22T06:13:55.542Z,100.0
2017-10-22T06:14:57.151Z,100.0
2017-10-22T06:15:58.762Z,100.0
2017-10-22T06:17:00.373Z,100.0
2017-10-22T06:18:01.986Z,100.0
2017-10-22T06:19:03.597Z,100.0
2017-10-22T06:20:05.862Z,100.0
2017-10-22T06:21:07.469Z,100.0
2017-10-22T06:22:09.072Z,100.0
2017-10-22T06:23:23.861Z,100.0
2017-10-22T06:24:25.440Z,100.0
2017-10-22T06:25:27.050Z,100.0
2017-10-22T06:26:29.094Z,100.0
2017-10-22T06:27:30.714Z,100.0
2017-10-22T06:28:32.334Z,100.0
2017-10-22T06:29:33.960Z,100.0
2017-10-22T06:30:35.570Z,100.0
2017-10-22T06:31:37.658Z,100.0
2017-10-22T06:32:39.274Z,100.0
2017-10-22T06:33:40.883Z,100.0
2017-10-22T06:34:42.493Z,100.0
2017-10-22T06:35:44.106Z,100.0
2017-10-22T06:36:45.722Z,100.0
2017-10-22T06:37:47.335Z,100.0
2017-10-22T06:38:48.951Z,100.0
2017-10-22T06:39:50.565Z,100.0
2017-10-22T06:40:52.177Z,100.0
2017-10-22T06:41:53.793Z,100.0
2017-10-22T06:42:56.636Z,100.0
2017-10-22T06:43:58.248Z,100.0
2017-10-22T06:44:59.869Z,100.0
2017-10-22T06:46:01.489Z,100.0
2017-10-22T06:47:03.101Z,100.0
2017-10-22T06:48:04.788Z,100.0
2017-10-22T06:49:06.402Z,100.0
2017-10-22T06:50:08.016Z,100.0
2017-10-22T06:51:09.643Z,100.0
2017-10-22T06:52:11.250Z,100.0
2017-10-22T06:53:12.863Z,100.0
2017-10-22T06:54:14.481Z,100.0
2017-10-22T06:55:16.091Z,100.0
2017-10-22T06:56:17.709Z,100.0
2017-10-22T06:57:19.324Z,100.0
2017-10-22T06:58:20.937Z,100.0
2017-10-22T06:59:22.551Z,100.0
2017-10-22T07:00:24.170Z,100.0
2017-10-22T07:01:25.787Z,100.0
2017-10-22T07:02:27.402Z,100.0
2017-10-22T07:03:29.019Z,100.0
2017-10-22T07:04:30.633Z,100.0
2017-10-22T07:05:32.397Z,100.0
2017-10-22T07:06:34.026Z,100.0
2017-10-22T07:07:35.637Z,100.0
2017-10-22T07:08:37.267Z,100.0
2017-10-22T07:09:38.871Z,99.4
2017-10-22T07:10:40.500Z,100.0
2017-10-22T07:11:42.098Z,99.4
2017-10-22T07:12:43.749Z,100.0
2017-10-22T07:13:45.748Z,100.0
2017-10-22T07:14:47.310Z,100.0
2017-10-22T07:15:48.927Z,100.0
2017-10-22T07:16:50.543Z,100.0
2017-10-22T07:17:52.162Z,98.7
2017-10-22T07:18:53.773Z,98.8
2017-10-22T07:19:55.386Z,98.1
2017-10-22T07:20:57.000Z,98.9
2017-10-22T07:21:58.617Z,98.9
2017-10-22T07:23:00.231Z,98.6
2017-10-22T07:24:01.844Z,98.7
2017-10-22T07:25:03.458Z,98.8
2017-10-22T07:26:05.088Z,99.1
2017-10-22T07:27:07.434Z,99.5
2017-10-22T07:28:09.045Z,99.2
2017-10-22T07:29:10.660Z,98.8
2017-10-22T07:30:12.273Z,98.7
2017-10-22T07:31:14.082Z,98.6
2017-10-22T07:32:15.696Z,98.3
2017-10-22T07:33:17.311Z,99.1
2017-10-22T07:34:18.921Z,98.3
2017-10-22T07:35:20.535Z,98.9
2017-10-22T07:36:22.149Z,98.3
2017-10-22T07:37:23.763Z,97.7
2017-10-22T07:38:25.373Z,97.2
2017-10-22T07:39:26.999Z,97.7
2017-10-22T07:40:28.611Z,97.8
2017-10-22T07:41:30.227Z,97.7
2017-10-22T07:42:31.998Z,97.5
2017-10-22T07:43:33.610Z,97.4
2017-10-22T07:44:35.228Z,97.7
2017-10-22T07:45:36.845Z,97.4
2017-10-22T07:46:38.451Z,97.5
2017-10-22T07:47:40.063Z,97.1
2017-10-22T07:48:41.682Z,97.3
2017-10-22T07:49:43.299Z,97.6
2017-10-22T07:50:44.918Z,97.6
2017-10-22T07:51:47.863Z,97.0
2017-10-22T07:52:49.479Z,97.4
2017-10-22T07:53:51.092Z,97.5
2017-10-22T07:54:52.715Z,96.8
2017-10-22T07:55:54.335Z,97.2
2017-10-22T07:56:57.921Z,98.4
2017-10-22T07:57:59.565Z,97.1
2017-10-22T07:59:01.563Z,98.7
2017-10-22T08:00:04.501Z,97.5
2017-10-22T08:01:06.136Z,97.7
2017-10-22T08:02:08.073Z,97.5
2017-10-22T08:03:09.668Z,97.1
2017-10-22T08:04:11.292Z,97.4
2017-10-22T08:05:13.101Z,97.6
2017-10-22T08:06:14.719Z,97.6
2017-10-22T08:07:16.337Z,97.4
2017-10-22T08:08:17.952Z,98.4
2017-10-22T08:09:19.567Z,97.2
2017-10-22T08:10:21.249Z,96.5
2017-10-22T08:11:22.865Z,97.0
2017-10-22T08:12:24.481Z,96.8
2017-10-22T08:13:27.069Z,97.3
2017-10-22T08:14:28.673Z,96.0
2017-10-22T08:15:30.290Z,96.6
2017-10-22T08:16:31.906Z,96.4
2017-10-22T08:17:33.522Z,96.5
2017-10-22T08:18:35.144Z,96.2
2017-10-22T08:19:39.200Z,96.6
2017-10-22T08:20:40.816Z,96.7
2017-10-22T08:21:42.435Z,97.4
2017-10-22T08:22:44.049Z,96.7
2017-10-22T08:23:45.668Z,97.0
2017-10-22T08:24:49.641Z,96.9
2017-10-22T08:25:51.263Z,96.7
2017-10-22T08:26:52.890Z,96.4
2017-10-22T08:27:54.500Z,96.6
2017-10-22T08:28:56.118Z,96.7
2017-10-22T08:30:00.123Z,97.1
2017-10-22T08:31:01.740Z,97.7
2017-10-22T08:32:03.356Z,97.2
2017-10-22T08:33:04.976Z,97.3
2017-10-22T08:34:06.593Z,96.7
2017-10-22T08:35:08.209Z,96.7
2017-10-22T08:36:09.826Z,97.5
2017-10-22T08:37:11.441Z,97.1
2017-10-22T08:38:13.057Z,97.5
2017-10-22T08:39:14.676Z,96.8
2017-10-22T08:40:16.292Z,97.1
2017-10-22T08:41:18.849Z,97.1
2017-10-22T08:42:20.465Z,97.4
2017-10-22T08:43:22.078Z,97.6
2017-10-22T08:44:23.691Z,97.3
2017-10-22T08:45:25.305Z,97.2
2017-10-22T08:46:27.893Z,97.4
2017-10-22T08:47:30.298Z,97.7
2017-10-22T08:48:31.915Z,97.1
2017-10-22T08:49:35.282Z,97.1
2017-10-22T08:50:36.896Z,97.0
2017-10-22T08:51:38.510Z,96.8
2017-10-22T08:52:40.136Z,97.1
2017-10-22T08:53:41.749Z,96.9
2017-10-22T08:54:43.370Z,96.8
2017-10-22T08:55:44.986Z,97.4
2017-10-22T08:56:46.705Z,97.3
2017-10-22T08:57:48.430Z,97.2
2017-10-22T08:58:50.039Z,97.5
2017-10-22T08:59:51.659Z,96.6
2017-10-22T09:00:53.276Z,96.3
2017-10-22T09:01:55.913Z,97.3
2017-10-22T09:02:57.537Z,96.7
2017-10-22T09:03:59.703Z,97.5
2017-10-22T09:05:01.176Z,97.4
2017-10-22T09:06:02.809Z,97.1
2017-10-22T09:07:04.423Z,96.7
2017-10-22T09:08:06.043Z,97.2
2017-10-22T09:09:08.304Z,96.5
2017-10-22T09:10:09.924Z,97.4
2017-10-22T09:11:11.556Z,96.5
2017-10-22T09:12:13.170Z,96.8
2017-10-22T09:13:14.787Z,96.3
2017-10-22T09:14:16.398Z,96.6
2017-10-22T09:15:18.037Z,96.8
2017-10-22T09:16:19.655Z,97.2
2017-10-22T09:17:21.271Z,97.3
2017-10-22T09:18:22.888Z,97.2
2017-10-22T09:19:25.312Z,97.5
2017-10-22T09:20:26.932Z,96.6
2017-10-22T09:21:28.559Z,97.4
2017-10-22T09:22:30.172Z,97.5
2017-10-22T09:23:31.794Z,97.1
2017-10-22T09:24:33.411Z,97.4
2017-10-22T09:25:35.030Z,97.7
2017-10-22T09:26:36.644Z,97.5
2017-10-22T09:27:40.102Z,97.5
2017-10-22T09:28:41.718Z,98.2
2017-10-22T09:29:44.232Z,98.0
2017-10-22T09:30:45.830Z,99.1
2017-10-22T09:31:47.446Z,99.4
2017-10-22T09:32:51.215Z,99.7
2017-10-22T09:33:52.851Z,100.0
2017-10-22T09:34:54.450Z,100.0
2017-10-22T09:35:56.070Z,100.0
2017-10-22T09:36:57.692Z,100.0
2017-10-22T09:37:59.430Z,100.0
2017-10-22T09:39:01.045Z,100.0
2017-10-22T09:40:03.909Z,100.0
2017-10-22T09:41:05.527Z,100.0
2017-10-22T09:42:07.146Z,100.0
2017-10-22T09:43:10.082Z,100.0
2017-10-22T09:44:11.696Z,100.0
2017-10-22T09:45:13.324Z,100.0
2017-10-22T09:46:14.946Z,100.0
2017-10-22T09:47:16.561Z,100.0
2017-10-22T09:48:18.177Z,100.0
2017-10-22T09:49:21.035Z,100.0
2017-10-22T09:50:23.301Z,100.0
2017-10-22T09:51:24.910Z,100.0
2017-10-22T09:52:26.543Z,100.0
2017-10-22T09:53:30.287Z,100.0
2017-10-22T09:54:31.130Z,100.0
2017-10-22T09:55:32.749Z,100.0
2017-10-22T09:56:34.361Z,100.0
2017-10-22T09:57:35.979Z,100.0
2017-10-22T09:58:37.595Z,100.0
2017-10-22T09:59:39.209Z,100.0
2017-10-22T10:00:40.824Z,100.0
2017-10-22T10:01:42.448Z,100.0
2017-10-22T10:02:44.065Z,100.0
2017-10-22T10:03:45.680Z,100.0
2017-10-22T10:04:47.294Z,100.0
2017-10-22T10:05:48.911Z,100.0
2017-10-22T10:06:50.544Z,100.0
2017-10-22T10:07:52.161Z,100.0
2017-10-22T10:08:53.783Z,100.0
2017-10-22T10:09:55.401Z,100.0
2017-10-22T10:10:57.019Z,100.0
2017-10-22T10:11:58.634Z,100.0
2017-10-22T10:13:00.240Z,100.0
2017-10-22T10:14:01.871Z,99.9
2017-10-22T10:15:03.486Z,99.4
2017-10-22T10:16:05.104Z,100.0
2017-10-22T10:17:06.721Z,100.0
2017-10-22T10:18:08.997Z,100.0
2017-10-22T10:19:10.619Z,100.0
2017-10-22T10:20:14.502Z,100.0
2017-10-22T10:21:16.121Z,100.0
2017-10-22T10:22:17.761Z,100.0
2017-10-22T10:23:21.883Z,100.0
2017-10-22T10:24:23.500Z,100.0
2017-10-22T10:25:25.117Z,100.0
2017-10-22T10:26:26.735Z,100.0
2017-10-22T10:27:28.384Z,100.0
2017-10-22T10:28:31.626Z,100.0
2017-10-22T10:29:33.289Z,100.0
2017-10-22T10:30:34.909Z,100.0
2017-10-22T10:31:37.616Z,100.0
2017-10-22T10:32:39.247Z,99.9
2017-10-22T10:33:40.864Z,100.0
2017-10-22T10:34:42.483Z,100.0
2017-10-22T10:35:44.140Z,99.9
2017-10-22T10:36:45.759Z,100.0
2017-10-22T10:37:47.370Z,100.0
2017-10-22T10:38:48.993Z,100.0
2017-10-22T10:39:50.603Z,100.0
2017-10-22T10:40:52.229Z,100.0
2017-10-22T10:41:54.713Z,100.0
2017-10-22T10:42:56.329Z,99.2
2017-10-22T10:43:58.241Z,100.0
2017-10-22T10:44:59.864Z,100.0
2017-10-22T10:46:01.492Z,100.0
2017-10-22T10:47:03.109Z,100.0
2017-10-22T10:48:04.746Z,100.0
2017-10-22T10:49:06.368Z,100.0
2017-10-22T10:50:07.994Z,100.0
2017-10-22T10:51:09.735Z,100.0
2017-10-22T10:52:11.357Z,100.0
2017-10-22T10:53:12.973Z,100.0
2017-10-22T10:54:14.705Z,100.0
2017-10-22T10:55:16.339Z,100.0
2017-10-22T10:56:17.971Z,100.0
2017-10-22T10:57:19.719Z,100.0
2017-10-22T10:58:21.445Z,100.0
2017-10-22T10:59:23.068Z,100.0
2017-10-22T11:00:24.681Z,100.0
2017-10-22T11:01:26.318Z,100.0
2017-10-22T11:02:27.956Z,100.0
2017-10-22T11:03:29.628Z,100.0
2017-10-22T11:04:31.245Z,100.0
2017-10-22T11:05:32.863Z,100.0
2017-10-22T11:06:35.704Z,100.0
2017-10-22T11:07:37.350Z,100.0
2017-10-22T11:08:39.016Z,100.0
2017-10-22T11:09:40.669Z,100.0
2017-10-22T11:10:42.285Z,100.0
2017-10-22T11:11:43.907Z,100.0
2017-10-22T11:12:45.530Z,100.0
2017-10-22T11:13:47.221Z,100.0
2017-10-22T11:14:48.845Z,100.0
2017-10-22T11:15:50.470Z,100.0
2017-10-22T11:16:52.188Z,100.0
2017-10-22T11:17:53.851Z,100.0
2017-10-22T11:18:55.723Z,100.0
2017-10-22T11:19:57.917Z,100.0
2017-10-22T11:20:59.692Z,100.0
2017-10-22T11:22:01.330Z,100.0
2017-10-22T11:23:02.971Z,100.0
2017-10-22T11:24:04.583Z,100.0
2017-10-22T11:25:06.206Z,100.0
2017-10-22T11:26:07.844Z,100.0
2017-10-22T11:27:09.553Z,100.0
2017-10-22T11:28:12.661Z,100.0
2017-10-22T11:29:15.358Z,100.0
2017-10-22T11:30:17.127Z,100.0
2017-10-22T11:31:18.749Z,100.0
2017-10-22T11:32:20.420Z,100.0
2017-10-22T11:33:22.048Z,100.0
2017-10-22T11:34:23.680Z,100.0
2017-10-22T11:35:25.307Z,100.0
2017-10-22T11:36:26.932Z,100.0
2017-10-22T11:37:28.553Z,100.0
2017-10-22T11:38:30.205Z,100.0
2017-10-22T11:39:31.888Z,100.0
2017-10-22T11:40:33.490Z,100.0
2017-10-22T11:41:35.353Z,100.0
2017-10-22T11:42:37.467Z,100.0
2017-10-22T11:43:39.054Z,100.0
2017-10-22T11:44:40.825Z,100.0
2017-10-22T11:45:42.598Z,100.0
2017-10-22T11:46:44.472Z,100.0
2017-10-22T11:47:46.206Z,100.0
2017-10-22T11:48:47.707Z,100.0
2017-10-22T11:49:49.332Z,100.0
2017-10-22T11:50:50.962Z,100.0
2017-10-22T11:51:52.617Z,100.0
2017-10-22T11:52:54.231Z,100.0
2017-10-22T11:53:55.868Z,100.0
2017-10-22T11:54:57.486Z,100.0
2017-10-22T11:55:59.204Z,100.0
2017-10-22T11:57:00.825Z,100.0
2017-10-22T11:58:02.446Z,100.0
2017-10-22T11:59:04.086Z,100.0
2017-10-22T12:00:05.724Z,100.0
2017-10-22T12:01:07.376Z,100.0
2017-10-22T12:02:08.994Z,100.0
2017-10-22T12:03:10.630Z,100.0
2017-10-22T12:04:12.285Z,100.0
2017-10-22T12:05:13.899Z,100.0
2017-10-22T12:06:15.515Z,100.0
2017-10-22T12:07:17.132Z,99.1
2017-10-22T12:08:18.794Z,99.6
2017-10-22T12:09:20.412Z,99.8
2017-10-22T12:10:22.232Z,99.4
2017-10-22T12:11:23.863Z,99.4
2017-10-22T12:12:25.475Z,98.8
2017-10-22T12:13:27.100Z,99.3
2017-10-22T12:14:28.734Z,98.8
2017-10-22T12:15:30.380Z,98.9
2017-10-22T12:16:32.004Z,98.8
2017-10-22T12:17:33.625Z,99.1
2017-10-22T12:18:35.235Z,98.6
2017-10-22T12:19:36.850Z,97.8
2017-10-22T12:20:38.527Z,98.2
2017-10-22T12:21:40.503Z,97.6
2017-10-22T12:22:42.128Z,97.5
2017-10-22T12:23:43.738Z,97.2
2017-10-22T12:24:45.607Z,97.6
2017-10-22T12:25:47.229Z,97.4
2017-10-22T12:26:48.861Z,97.4
2017-10-22T12:27:50.474Z,97.2
2017-10-22T12:28:52.161Z,97.5
2017-10-22T12:29:54.420Z,96.7
2017-10-22T12:30:56.054Z,97.0
2017-10-22T12:31:58.456Z,96.7
2017-10-22T12:33:00.470Z,97.3
2017-10-22T12:34:02.259Z,96.4
2017-10-22T12:35:03.907Z,96.3
2017-10-22T12:36:05.517Z,96.2
2017-10-22T12:37:07.188Z,96.0
2017-10-22T12:38:08.816Z,94.7
2017-10-22T12:39:10.776Z,94.7
2017-10-22T12:40:12.403Z,94.7
2017-10-22T12:41:14.275Z,95.0
2017-10-22T12:42:15.966Z,95.4
2017-10-22T12:43:17.628Z,94.9
2017-10-22T12:44:19.244Z,94.1
2017-10-22T12:45:20.895Z,93.3
2017-10-22T12:46:22.522Z,92.5
2017-10-22T12:47:24.139Z,91.8
2017-10-22T12:48:25.762Z,91.5
2017-10-22T12:49:27.392Z,91.4
2017-10-22T12:50:29.021Z,91.3
2017-10-22T12:51:30.696Z,90.9
2017-10-22T12:52:32.275Z,91.0
2017-10-22T12:53:33.918Z,90.9
2017-10-22T12:54:35.534Z,90.6
2017-10-22T12:55:37.152Z,91.0
2017-10-22T12:56:39.065Z,91.5
2017-10-22T12:57:41.075Z,91.5
2017-10-22T12:58:42.713Z,91.0
2017-10-22T12:59:45.478Z,91.1
2017-10-22T13:00:47.101Z,91.0
2017-10-22T13:01:48.727Z,91.1
2017-10-22T13:02:54.802Z,90.7
2017-10-22T13:03:57.062Z,91.2
2017-10-22T13:04:58.674Z,90.3
2017-10-22T13:06:00.332Z,90.9
2017-10-22T13:07:02.477Z,90.4
2017-10-22T13:08:04.227Z,88.8
2017-10-22T13:09:05.853Z,87.2
2017-10-22T13:10:07.859Z,87.2
2017-10-22T13:11:09.475Z,86.9
2017-10-22T13:12:11.091Z,86.6
2017-10-22T13:13:13.385Z,87.5
2017-10-22T13:14:15.021Z,87.2
2017-10-22T13:15:16.675Z,86.7
2017-10-22T13:16:18.902Z,87.3
2017-10-22T13:17:20.515Z,87.2
2017-10-22T13:18:22.148Z,88.1
2017-10-22T13:19:23.770Z,88.2
2017-10-22T13:20:25.383Z,88.1
2017-10-22T13:21:27.060Z,88.8
2017-10-22T13:22:28.744Z,88.0
2017-10-22T13:23:30.388Z,87.5
2017-10-22T13:24:31.998Z,88.3
2017-10-22T13:25:33.741Z,88.3
2017-10-22T13:26:35.401Z,89.1
2017-10-22T13:27:37.249Z,89.4
2017-10-22T13:28:38.903Z,88.7
2017-10-22T13:29:40.704Z,88.3